Aarhus Airport

EKAH · 中日德兰大区, 丹麦

罗盘
风向 的 风向 080° Aarhus Airport 10L/28R
风: 6 kt, 2 beaufort

6 kt

2 kt
改变
0 ft 2.000 4.000 6.000 8.000 10.000
Cloud Cloud
FEW 6.300
Cloud Cloud Cloud Cloud Cloud Cloud Cloud Cloud
OVC 10.000
METAR EKAH 032120Z AUTO 08006KT 4300 BR FEW063/// OVC100/// 07/06 Q1011

METAR Aarhus Airport - EKAH/AAR

Aarhus Airport是,丹麦中的中型机场。 该机场位于纬度56,30428和经度10,61945。 该机场有2条跑道: 10L/28R 和 10R/28L. 本场的ICAO机场代码为EKAH。 该机场的IATA代码为AAR。 机场在Kobenhavn FIR中。

该航空气象观测是针对Aarhus Airport在2024年3月3日 22:20, 当地时间进行的。

机场观察

风向为080°,速度为6 kt。

可见度为4,3 km。

有几云在6.300 ft的高度 和 乌云密布在10.000 ft的高度。 破损或更高的上限为10.000 ft。

当前天气为薄雾。 温度为7 °C,阵风为4 °C。 露点为6 °C,相对湿度为93%。 海平面上的气压为1011 hPa (QNH)。

白天

今天,太阳从07:02升起,在17:56降落。 这适用于Aarhus Airport,世界夏令时可能有所不同。 当地时间与世界标准时间之间的时差为+1 小时。 当前,没有夏令时有效。

公司介绍

在这个机场,你可以找到跳伞中心。 本场上唯一已知的公司是Århus faldskærms Klub。

体会

到Vliegles.nl去找飞行课程,跳伞和其他飞行体验。 浏览页面,了解Aarhus Airport附近所有可用的活动。 你也可以使用搜索功能来寻找你所在地附近的特定飞行课程、跳伞或其他飞行体验。

跑道

Id 标题 侧风 逆风 侧风 %
10L/28R 100°-280° 2 kt 6 kt 34 %
10R/28L 100°-280° 2 kt 6 kt 34 %

逆风成分最大的方向会被突出显示,并用于横风计算。 这并不一定意味着这个方向在使用。

乌云

6.300 ft FEW 几云
10.000 ft OVC 乌云密布

温度 & 天气

天气 薄雾
温度 7 °C
露点 6 °C
相对湿度 93%
风寒 4 °C
Kp-index 4 (0-9)

白天

日出
07:02 (8:05)
中午
12:29
日落
17:56

小工具

你想在你的网站上有一个关于Aarhus Airport的当前航空天气(METAR)的小部件吗?

显示HTML代码
?>